Time;durP1;ratioP1;P1;durP2;ratioP2;P2;SDS_P1;SDS_P2;PMS_P1;PMS_P2;Temp;Humidity;BMP_temperature;BMP_pressure;BME280_temperature;BME280_humidity;BME280_pressure;Samples;Min_cycle;Max_cycle;Signal;HPM_P1;HPM_P2
2020/12/12 00:01:18;;;;;;;;;;;;;;;20.26;42.35;100036.66;5097025;28;775;-53
2020/12/12 00:03:44;;;;;;;;;;;;;;;20.34;42.19;100044.16;5096623;28;969;-54
2020/12/12 00:06:09;;;;;;;;;;;;;;;20.10;42.76;100042.56;5096908;28;739;-55
2020/12/12 00:08:36;;;;;;;;;;;;;;;19.85;43.19;100043.22;5097051;28;779;-53
2020/12/12 00:11:01;;;;;;;;;;;;;;;19.55;43.74;100045.56;5096622;28;992;-53
2020/12/12 00:13:27;;;;;;;;;;;;;;;19.71;43.67;100038.53;5096765;28;1977;-51
2020/12/12 00:15:52;;;;;;;;;;;;;;;20.64;41.43;100048.06;5113399;28;1150;-54
2020/12/12 00:18:17;;;;;;;;;;;;;;;20.21;42.40;100034.03;5116735;28;1062;-53
2020/12/12 00:20:43;;;;;;;;;;;;;;;19.90;42.89;100041.16;5097959;28;1003;-53
2020/12/12 00:23:08;;;;;;;;;;;;;;;19.70;43.39;100033.34;5096397;28;881;-52
2020/12/12 00:25:34;;;;;;;;;;;;;;;19.26;44.32;100028.25;5096662;28;782;-53
2020/12/12 00:27:59;;;;;;;;;;;;;;;20.15;42.64;100014.84;5096933;28;766;-53
2020/12/12 00:30:24;;;;;;;;;;;;;;;20.50;41.78;100015.00;5096271;28;774;-54
2020/12/12 00:32:50;;;;;;;;;;;;;;;19.91;43.24;100015.19;5096276;28;1906;-52
2020/12/12 00:35:15;;;;;;;;;;;;;;;19.83;43.19;100014.00;5096074;28;946;-53
2020/12/12 00:37:41;;;;;;;;;;;;;;;19.48;44.06;100002.69;5096049;28;835;-50
2020/12/12 00:40:06;;;;;;;;;;;;;;;19.09;44.78;100001.38;5096337;28;743;-53
2020/12/12 00:42:32;;;;;;;;;;;;;;;20.11;42.57;99997.28;5096438;28;814;-49
2020/12/12 00:44:57;;;;;;;;;;;;;;;20.30;41.92;99983.28;5095944;28;751;-51
2020/12/12 00:47:22;;;;;;;;;;;;;;;19.97;42.78;99985.53;5096409;28;739;-54
2020/12/12 00:49:48;;;;;;;;;;;;;;;19.76;43.22;99983.25;5096298;28;981;-55
2020/12/12 00:52:13;;;;;;;;;;;;;;;19.46;43.59;99977.38;5095893;28;802;-53
2020/12/12 00:54:39;;;;;;;;;;;;;;;19.96;43.00;99975.63;5094998;28;834;-55
2020/12/12 00:57:08;;;;;;;;;;;;;;;20.45;41.49;99973.72;5094975;28;1238;-54
2020/12/12 00:59:33;;;;;;;;;;;;;;;19.86;43.12;99970.38;5094773;28;751;-54
2020/12/12 01:01:59;;;;;;;;;;;;;;;19.91;42.82;99970.22;5095055;28;739;-56
2020/12/12 01:04:24;;;;;;;;;;;;;;;19.49;44.05;99975.94;5096409;28;945;-54
2020/12/12 01:06:49;;;;;;;;;;;;;;;19.27;44.40;99985.00;5097644;28;802;-54
2020/12/12 01:09:15;;;;;;;;;;;;;;;20.00;42.80;99974.66;5100277;28;759;-52
2020/12/12 01:11:40;;;;;;;;;;;;;;;20.47;41.66;99971.47;5100151;28;831;-51
2020/12/12 01:14:06;;;;;;;;;;;;;;;20.09;42.45;99960.94;5101936;28;1906;-51
2020/12/12 01:16:31;;;;;;;;;;;;;;;19.80;43.13;99955.91;5120548;28;573;-47
2020/12/12 01:18:57;;;;;;;;;;;;;;;19.48;43.77;99955.81;5115885;28;1019;-53
2020/12/12 01:21:22;;;;;;;;;;;;;;;19.53;43.88;99952.13;5099850;28;846;-55
2020/12/12 01:23:47;;;;;;;;;;;;;;;20.42;41.95;99938.47;5100303;28;808;-55
2020/12/12 01:26:13;;;;;;;;;;;;;;;20.13;42.21;99945.38;5099761;28;846;-53
2020/12/12 01:28:39;;;;;;;;;;;;;;;20.09;42.47;99936.09;5099685;28;795;-53
2020/12/12 01:31:04;;;;;;;;;;;;;;;19.76;43.09;99930.84;5099893;28;814;-54
2020/12/12 01:33:29;;;;;;;;;;;;;;;19.37;44.25;99940.66;5099408;28;1910;-53
2020/12/12 01:35:55;;;;;;;;;;;;;;;20.44;41.92;99935.38;5099727;28;807;-54
2020/12/12 01:38:20;;;;;;;;;;;;;;;20.35;41.80;99938.13;5099679;28;827;-55
2020/12/12 01:40:46;;;;;;;;;;;;;;;19.99;42.78;99939.09;5099502;28;818;-54
2020/12/12 01:43:11;;;;;;;;;;;;;;;19.89;42.76;99933.88;5099428;28;794;-46
2020/12/12 01:45:37;;;;;;;;;;;;;;;19.43;43.90;99922.88;5099452;28;803;-54
2020/12/12 01:48:03;;;;;;;;;;;;;;;19.74;43.44;99919.31;5099508;28;791;-53
2020/12/12 01:50:28;;;;;;;;;;;;;;;20.68;41.16;99912.91;5098985;28;934;-52
2020/12/12 01:52:54;;;;;;;;;;;;;;;20.04;42.69;99914.13;5098380;28;1905;-53
2020/12/12 01:55:22;;;;;;;;;;;;;;;20.05;42.70;99910.25;5099223;28;882;-54
2020/12/12 01:57:48;;;;;;;;;;;;;;;19.88;42.78;99918.44;5099092;28;811;-49
2020/12/12 02:00:14;;;;;;;;;;;;;;;19.29;44.12;99911.91;5099321;28;749;-54
2020/12/12 02:02:39;;;;;;;;;;;;;;;20.17;42.44;99906.88;5099323;28;802;-53
2020/12/12 02:05:04;;;;;;;;;;;;;;;20.42;41.86;99897.06;5097189;28;990;-53
2020/12/12 02:07:30;;;;;;;;;;;;;;;19.92;42.73;99903.72;5098772;28;871;-52
2020/12/12 02:09:55;;;;;;;;;;;;;;;19.95;42.56;99894.78;5099142;28;830;-52
2020/12/12 02:12:21;;;;;;;;;;;;;;;19.54;43.58;99895.81;5098890;28;1976;-54
2020/12/12 02:14:47;;;;;;;;;;;;;;;19.52;44.10;99894.50;5106927;28;1110;-52
2020/12/12 02:17:12;;;;;;;;;;;;;;;20.46;41.73;99892.50;5119328;28;880;-51
2020/12/12 02:19:38;;;;;;;;;;;;;;;20.16;42.35;99892.28;5108520;28;1012;-54
2020/12/12 02:22:04;;;;;;;;;;;;;;;19.95;42.87;99883.75;5098635;28;755;-52
2020/12/12 02:24:30;;;;;;;;;;;;;;;19.79;43.30;99890.78;5098977;28;751;-55
2020/12/12 02:26:56;;;;;;;;;;;;;;;19.28;44.14;99876.38;5098710;28;842;-55
2020/12/12 02:29:21;;;;;;;;;;;;;;;20.06;42.60;99878.75;5098694;28;759;-54
2020/12/12 02:31:47;;;;;;;;;;;;;;;20.50;41.43;99876.13;5099052;28;802;-54
2020/12/12 02:34:12;;;;;;;;;;;;;;;20.11;42.30;99875.84;5098114;28;1910;-53
2020/12/12 02:36:38;;;;;;;;;;;;;;;19.86;42.97;99873.81;5098462;28;792;-54
2020/12/12 02:39:04;;;;;;;;;;;;;;;19.49;44.01;99866.44;5098772;28;783;-54
2020/12/12 02:41:29;;;;;;;;;;;;;;;19.42;43.91;99866.09;5098349;28;807;-54
2020/12/12 02:43:55;;;;;;;;;;;;;;;20.21;42.38;99860.94;5098287;28;779;-55
2020/12/12 02:46:20;;;;;;;;;;;;;;;20.30;41.84;99860.97;5098385;28;766;-54
2020/12/12 02:48:48;;;;;;;;;;;;;;;19.99;42.91;99861.84;5097875;28;933;-54
2020/12/12 02:51:15;;;;;;;;;;;;;;;19.79;43.00;99864.03;5098142;28;949;-54
2020/12/12 02:53:42;;;;;;;;;;;;;;;19.31;44.24;99864.72;5098135;28;1969;-52
2020/12/12 02:56:07;;;;;;;;;;;;;;;19.52;44.04;99855.91;5098446;28;778;-54
2020/12/12 02:58:32;;;;;;;;;;;;;;;20.48;41.72;99861.81;5096950;28;1089;-54
2020/12/12 03:00:58;;;;;;;;;;;;;;;20.21;42.18;99860.16;5098090;28;684;-54
2020/12/12 03:03:23;;;;;;;;;;;;;;;20.00;42.79;99857.97;5098052;28;482;-54
2020/12/12 03:05:49;;;;;;;;;;;;;;;19.68;43.36;99870.94;5097423;28;973;-52
2020/12/12 03:08:14;;;;;;;;;;;;;;;19.42;44.15;99860.56;5098214;28;774;-53
2020/12/12 03:10:40;;;;;;;;;;;;;;;20.19;42.40;99849.44;5096867;28;834;-52
2020/12/12 03:13:05;;;;;;;;;;;;;;;20.61;41.18;99843.50;5097619;28;1965;-53
2020/12/12 03:15:30;;;;;;;;;;;;;;;20.23;42.29;99853.19;5111558;28;1113;-51
2020/12/12 03:17:56;;;;;;;;;;;;;;;20.00;42.63;99846.91;5118297;28;1272;-51
2020/12/12 03:20:23;;;;;;;;;;;;;;;19.57;43.60;99837.31;5101930;28;948;-53
2020/12/12 03:22:48;;;;;;;;;;;;;;;19.42;44.31;99840.44;5097605;28;798;-54
2020/12/12 03:25:14;;;;;;;;;;;;;;;20.34;41.90;99839.84;5097543;28;755;-53
2020/12/12 03:27:39;;;;;;;;;;;;;;;20.45;41.73;99829.31;5097413;28;755;-53
2020/12/12 03:30:05;;;;;;;;;;;;;;;20.24;42.09;99834.66;5096502;28;798;-53
2020/12/12 03:32:30;;;;;;;;;;;;;;;19.82;43.13;99830.31;5097438;28;1976;-52
2020/12/12 03:34:55;;;;;;;;;;;;;;;19.53;44.03;99839.06;5097168;28;961;-51
2020/12/12 03:37:21;;;;;;;;;;;;;;;19.36;44.09;99839.75;5097232;28;779;-53
2020/12/12 03:39:46;;;;;;;;;;;;;;;20.22;42.57;99842.47;5097372;28;882;-53
2020/12/12 03:42:12;;;;;;;;;;;;;;;20.64;41.30;99834.56;5097164;28;818;-54
2020/12/12 03:44:37;;;;;;;;;;;;;;;20.33;41.89;99832.72;5097111;28;862;-52
2020/12/12 03:47:03;;;;;;;;;;;;;;;20.11;42.51;99833.66;5097295;28;839;-53
2020/12/12 03:49:28;;;;;;;;;;;;;;;19.45;43.88;99831.56;5096862;28;1147;-54
2020/12/12 03:51:54;;;;;;;;;;;;;;;19.40;44.04;99835.25;5096933;28;759;-54
2020/12/12 03:54:19;;;;;;;;;;;;;;;20.06;42.69;99825.50;5097532;28;1914;-55
2020/12/12 03:56:44;;;;;;;;;;;;;;;20.66;41.29;99826.75;5096893;28;786;-54
2020/12/12 03:59:10;;;;;;;;;;;;;;;20.07;42.46;99822.44;5097419;28;822;-54
2020/12/12 04:01:36;;;;;;;;;;;;;;;20.03;42.82;99818.69;5097635;28;763;-49
2020/12/12 04:04:01;;;;;;;;;;;;;;;19.44;43.77;99819.72;5096263;28;949;-56
2020/12/12 04:06:27;;;;;;;;;;;;;;;19.29;44.30;99823.69;5096675;28;786;-55
2020/12/12 04:08:52;;;;;;;;;;;;;;;20.00;42.88;99819.31;5096865;28;811;-55
2020/12/12 04:11:18;;;;;;;;;;;;;;;20.54;41.66;99812.75;5096785;28;859;-55
2020/12/12 04:13:43;;;;;;;;;;;;;;;20.04;42.55;99808.47;5096846;28;1909;-54
2020/12/12 04:16:09;;;;;;;;;;;;;;;19.83;43.31;99809.84;5116004;28;1101;-52
2020/12/12 04:18:34;;;;;;;;;;;;;;;19.34;44.29;99808.97;5115488;28;1114;-56
2020/12/12 04:21:00;;;;;;;;;;;;;;;19.92;42.99;99807.16;5096493;28;763;-53
2020/12/12 04:23:25;;;;;;;;;;;;;;;20.76;40.99;99812.66;5096688;28;748;-56
2020/12/12 04:25:50;;;;;;;;;;;;;;;20.07;42.45;99807.81;5096257;28;779;-56
2020/12/12 04:28:16;;;;;;;;;;;;;;;19.86;43.03;99804.84;5096584;28;803;-55
2020/12/12 04:30:41;;;;;;;;;;;;;;;19.26;44.17;99804.22;5097199;28;783;-57
2020/12/12 04:33:07;;;;;;;;;;;;;;;19.56;43.93;99799.84;5096364;28;1910;-48
2020/12/12 04:35:32;;;;;;;;;;;;;;;20.52;41.89;99802.03;5095775;28;926;-54
2020/12/12 04:37:58;;;;;;;;;;;;;;;20.36;41.97;99804.47;5096467;28;827;-48
2020/12/12 04:40:23;;;;;;;;;;;;;;;20.02;42.87;99810.72;5096283;28;834;-52
2020/12/12 04:42:49;;;;;;;;;;;;;;;19.38;43.90;99804.44;5095966;28;773;-54
2020/12/12 04:45:20;;;;;;;;;;;;;;;19.69;43.63;99802.81;5096381;28;763;-56
2020/12/12 04:47:46;;;;;;;;;;;;;;;20.59;41.55;99802.38;5096529;28;811;-55
2020/12/12 04:50:12;;;;;;;;;;;;;;;20.09;42.81;99809.13;5095705;28;1009;-53
2020/12/12 04:52:39;;;;;;;;;;;;;;;19.86;43.19;99799.31;5096517;28;1918;-56
2020/12/12 04:55:05;;;;;;;;;;;;;;;19.34;44.04;99797.13;5096200;28;830;-53
2020/12/12 04:57:34;;;;;;;;;;;;;;;20.02;43.15;99802.44;5095715;28;787;-56
2020/12/12 05:00:00;;;;;;;;;;;;;;;20.73;41.24;99802.22;5092558;28;1501;-51
2020/12/12 05:02:25;;;;;;;;;;;;;;;19.93;43.17;99802.44;5079734;28;752;-55
2020/12/12 05:04:51;;;;;;;;;;;;;;;19.94;43.05;99804.06;5082012;28;951;-55
2020/12/12 05:07:17;;;;;;;;;;;;;;;19.34;43.72;99806.19;5076108;28;748;-56
2020/12/12 05:09:43;;;;;;;;;;;;;;;19.91;43.28;99794.47;5075928;28;822;-57
2020/12/12 05:12:09;;;;;;;;;;;;;;;20.67;41.61;99798.81;5075760;28;740;-54
2020/12/12 05:14:34;;;;;;;;;;;;;;;20.18;42.65;99798.91;5100539;28;1974;-52
2020/12/12 05:17:00;;;;;;;;;;;;;;;20.00;43.06;99791.72;5116777;28;763;-55
2020/12/12 05:19:25;;;;;;;;;;;;;;;19.40;44.11;99791.16;5105459;28;1492;-44
2020/12/12 05:21:51;;;;;;;;;;;;;;;19.91;43.42;99794.47;5095986;28;494;-56
2020/12/12 05:24:17;;;;;;;;;;;;;;;20.76;41.38;99796.09;5096542;28;747;-49
2020/12/12 05:26:43;;;;;;;;;;;;;;;21.36;40.21;99796.28;5095700;28;751;-56
2020/12/12 05:29:08;;;;;;;;;;;;;;;20.65;41.44;99789.19;5095924;28;834;-49
2020/12/12 05:31:34;;;;;;;;;;;;;;;20.26;42.43;99779.91;5096065;28;771;-51
2020/12/12 05:34:10;;;;;;;;;;;;;;;19.71;43.66;99789.50;5095138;28;1909;-54
2020/12/12 05:36:36;;;;;;;;;;;;;;;19.52;44.33;99786.97;5095862;28;743;-45
2020/12/12 05:39:02;;;;;;;;;;;;;;;20.52;41.79;99786.31;5095919;28;858;-56
2020/12/12 05:41:28;;;;;;;;;;;;;;;20.26;42.46;99777.16;5094737;28;791;-52
2020/12/12 05:43:54;;;;;;;;;;;;;;;20.07;42.85;99774.72;5096069;28;827;-51
2020/12/12 05:46:20;;;;;;;;;;;;;;;19.76;43.39;99776.38;5095827;28;815;-46
2020/12/12 05:48:46;;;;;;;;;;;;;;;19.31;44.71;99773.75;5093792;28;941;-54
2020/12/12 05:51:11;;;;;;;;;;;;;;;20.24;42.64;99768.41;5095777;28;787;-55
2020/12/12 05:53:37;;;;;;;;;;;;;;;20.47;42.12;99769.88;5095488;28;1913;-51
2020/12/12 05:56:03;;;;;;;;;;;;;;;20.02;42.89;99764.66;5097556;28;1092;-53
2020/12/12 05:58:28;;;;;;;;;;;;;;;19.88;43.26;99772.22;5098247;28;827;-45
2020/12/12 06:00:54;;;;;;;;;;;;;;;19.35;44.01;99772.00;5098899;28;815;-54
2020/12/12 06:03:28;;;;;;;;;;;;;;;20.03;43.04;99771.78;5098867;28;862;-45
2020/12/12 06:05:54;;;;;;;;;;;;;;;20.51;41.91;99770.88;5099328;28;933;-52
2020/12/12 06:08:32;;;;;;;;;;;;;;;20.23;42.51;99773.13;5097926;28;851;-50
2020/12/12 06:10:58;;;;;;;;;;;;;;;19.91;43.31;99772.41;5098977;28;826;-46
2020/12/12 06:13:24;;;;;;;;;;;;;;;19.23;44.70;99763.50;5098108;28;1914;-56
2020/12/12 06:15:50;;;;;;;;;;;;;;;20.19;42.95;99777.66;5114145;28;1188;-50
2020/12/12 06:18:16;;;;;;;;;;;;;;;20.35;42.42;99769.72;5118859;28;1119;-55
2020/12/12 06:20:42;;;;;;;;;;;;;;;20.00;43.32;99783.47;5100941;28;984;-54
2020/12/12 06:23:07;;;;;;;;;;;;;;;19.76;43.68;99770.06;5097901;28;751;-53
2020/12/12 06:25:33;;;;;;;;;;;;;;;19.31;45.16;99763.53;5096859;28;870;-52
2020/12/12 06:27:58;;;;;;;;;;;;;;;20.38;42.43;99763.53;5098742;28;1073;-56
2020/12/12 06:30:25;;;;;;;;;;;;;;;20.28;42.54;99763.88;5098832;28;747;-55
2020/12/12 06:32:57;;;;;;;;;;;;;;;19.99;43.30;99763.34;5096962;28;1985;-56
2020/12/12 06:35:26;;;;;;;;;;;;;;;19.53;43.96;99756.34;5097508;28;953;-55
2020/12/12 06:37:52;;;;;;;;;;;;;;;19.12;45.89;99749.97;5097512;28;1318;-57
2020/12/12 06:40:17;;;;;;;;;;;;;;;20.27;42.60;99753.94;5097271;28;925;-49
2020/12/12 06:42:44;;;;;;;;;;;;;;;20.27;42.58;99754.78;5098818;28;762;-52
2020/12/12 06:45:13;;;;;;;;;;;;;;;19.94;43.49;99760.72;5098739;28;834;-55
2020/12/12 06:47:42;;;;;;;;;;;;;;;19.63;43.93;99760.78;5098713;28;751;-47
2020/12/12 06:50:11;;;;;;;;;;;;;;;19.53;44.45;99766.56;5098160;28;957;-48
2020/12/12 06:52:37;;;;;;;;;;;;;;;20.56;42.18;99764.34;5098266;28;1967;-46
2020/12/12 06:55:06;;;;;;;;;;;;;;;20.42;42.11;99763.72;5098514;28;790;-55
2020/12/12 06:57:55;;;;;;;;;;;;;;;20.02;43.32;99761.06;5098352;28;743;-57
2020/12/12 07:00:27;;;;;;;;;;;;;;;19.38;44.30;99765.03;5098407;28;1907;-56
2020/12/12 07:03:02;;;;;;;;;;;;;;;19.74;43.90;99767.63;5097062;28;877;-55
2020/12/12 07:05:29;;;;;;;;;;;;;;;20.57;41.79;99757.69;5096777;28;970;-56
2020/12/12 07:08:01;;;;;;;;;;;;;;;19.96;43.44;99761.22;5098308;28;827;-55
2020/12/12 07:10:27;;;;;;;;;;;;;;;19.85;43.58;99761.84;5098221;28;819;-52
2020/12/12 07:12:52;;;;;;;;;;;;;;;19.28;44.08;99761.44;5097631;28;1909;-46
2020/12/12 07:15:17;;;;;;;;;;;;;;;20.18;43.06;99745.66;5110003;28;1121;-45
2020/12/12 07:17:43;;;;;;;;;;;;;;;20.49;42.12;99742.75;5118318;28;1208;-54
2020/12/12 07:20:08;;;;;;;;;;;;;;;20.08;42.97;99741.28;5102971;28;925;-52
2020/12/12 07:22:34;;;;;;;;;;;;;;;19.81;43.56;99740.41;5097956;28;756;-50
2020/12/12 07:25:00;;;;;;;;;;;;;;;19.38;44.72;99743.78;5097448;28;878;-52
2020/12/12 07:27:25;;;;;;;;;;;;;;;20.53;42.25;99729.09;5097741;28;767;-44
2020/12/12 07:29:51;;;;;;;;;;;;;;;20.36;42.24;99738.22;5097850;28;841;-56
2020/12/12 07:32:16;;;;;;;;;;;;;;;19.98;43.18;99738.84;5097906;28;819;-55
2020/12/12 07:34:42;;;;;;;;;;;;;;;19.74;43.65;99736.44;5097214;28;1922;-56
2020/12/12 07:37:08;;;;;;;;;;;;;;;19.41;44.84;99734.88;5097893;28;803;-46
2020/12/12 07:39:37;;;;;;;;;;;;;;;20.39;42.57;99740.31;5097429;28;870;-45
2020/12/12 07:42:03;;;;;;;;;;;;;;;20.48;41.93;99729.25;5097647;28;744;-57
2020/12/12 07:44:33;;;;;;;;;;;;;;;19.99;43.45;99729.41;5098122;28;763;-54
2020/12/12 07:47:06;;;;;;;;;;;;;;;19.82;44.00;99719.97;5097522;28;782;-54
2020/12/12 07:49:31;;;;;;;;;;;;;;;18.95;45.99;99730.59;5097268;28;847;-52
2020/12/12 07:52:00;;;;;;;;;;;;;;;20.08;43.93;99724.72;5097375;28;791;-49
2020/12/12 07:54:37;;;;;;;;;;;;;;;20.57;42.34;99723.75;5096926;28;1905;-47
2020/12/12 07:57:04;;;;;;;;;;;;;;;20.11;43.43;99729.56;5096809;28;792;-53
2020/12/12 07:59:30;;;;;;;;;;;;;;;19.82;44.22;99727.41;5097434;28;795;-49
2020/12/12 08:01:59;;;;;;;;;;;;;;;19.20;44.53;99726.38;5096841;28;819;-49
2020/12/12 08:04:24;;;;;;;;;;;;;;;20.29;43.23;99721.31;5096992;28;985;-48
2020/12/12 08:06:50;;;;;;;;;;;;;;;20.94;41.52;99719.47;5096988;28;819;-48
2020/12/12 08:09:22;;;;;;;;;;;;;;;20.25;43.22;99725.88;5096913;28;791;-52
2020/12/12 08:11:58;;;;;;;;;;;;;;;20.04;43.47;99723.72;5097061;28;795;-46
2020/12/12 08:14:24;;;;;;;;;;;;;;;19.38;44.92;99727.25;5101267;28;1910;-53
2020/12/12 08:16:54;;;;;;;;;;;;;;;19.77;44.51;99733.06;5117058;28;759;-49
2020/12/12 08:19:20;;;;;;;;;;;;;;;20.69;42.35;99732.19;5109482;28;1153;-55
2020/12/12 08:21:46;;;;;;;;;;;;;;;20.34;42.86;99721.97;5096731;28;794;-50
2020/12/12 08:24:11;;;;;;;;;;;;;;;20.14;43.38;99712.38;5096873;28;735;-52
2020/12/12 08:26:37;;;;;;;;;;;;;;;19.49;44.62;99722.28;5096828;28;735;-46
2020/12/12 08:29:03;;;;;;;;;;;;;;;19.21;45.84;99716.13;5096895;28;790;-45
2020/12/12 08:31:35;;;;;;;;;;;;;;;20.45;42.64;99714.16;5096836;28;825;-49
2020/12/12 08:34:00;;;;;;;;;;;;;;;20.33;42.93;99714.81;5096184;28;1909;-52
2020/12/12 08:36:28;;;;;;;;;;;;;;;20.11;43.24;99707.50;5096690;28;825;-53
2020/12/12 08:38:53;;;;;;;;;;;;;;;19.60;44.32;99698.78;5096698;28;826;-54
2020/12/12 08:41:19;;;;;;;;;;;;;;;19.26;45.71;99692.00;5096731;28;870;-51
2020/12/12 08:43:45;;;;;;;;;;;;;;;20.43;42.69;99686.06;5096558;28;771;-46
2020/12/12 08:46:14;;;;;;;;;;;;;;;20.59;42.24;99677.28;5096681;28;814;-56
2020/12/12 08:48:40;;;;;;;;;;;;;;;20.20;43.00;99668.06;5095978;28;913;-50
2020/12/12 08:51:06;;;;;;;;;;;;;;;19.98;43.52;99672.59;5096776;28;799;-45
2020/12/12 08:53:34;;;;;;;;;;;;;;;19.31;44.95;99675.34;5096740;28;1910;-48
2020/12/12 08:56:06;;;;;;;;;;;;;;;19.87;44.20;99657.50;5096369;28;815;-50
2020/12/12 08:58:40;;;;;;;;;;;;;;;20.64;42.29;99655.81;5096408;28;1072;-48
2020/12/12 09:01:13;;;;;;;;;;;;;;;20.17;43.39;99651.03;5096691;28;790;-48
2020/12/12 09:03:48;;;;;;;;;;;;;;;20.13;43.25;99643.69;5095762;28;945;-55
2020/12/12 09:06:13;;;;;;;;;;;;;;;19.41;44.83;99627.38;5096504;28;739;-52
2020/12/12 09:08:38;;;;;;;;;;;;;;;19.27;45.57;99629.44;5096467;28;739;-56
2020/12/12 09:11:31;;;;;;;;;;;;;;;19.57;44.79;99626.91;5096169;28;711;-56
2020/12/12 09:13:57;;;;;;;;;;;;;;;19.80;44.10;99617.41;5094375;28;1906;-55
2020/12/12 09:16:24;;;;;;;;;;;;;;;19.66;44.45;99622.25;5116633;28;806;-51
2020/12/12 09:18:50;;;;;;;;;;;;;;;19.81;44.22;99612.69;5107992;28;1032;-47
2020/12/12 09:21:15;;;;;;;;;;;;;;;19.93;43.67;99603.78;5096209;28;506;-48
2020/12/12 09:23:41;;;;;;;;;;;;;;;20.03;43.44;99606.19;5089830;28;1188;-45
2020/12/12 09:26:06;;;;;;;;;;;;;;;20.11;43.33;99607.34;5085925;28;1354;-52
2020/12/12 09:28:32;;;;;;;;;;;;;;;20.26;42.89;99601.31;5089098;28;1236;-49
2020/12/12 09:30:57;;;;;;;;;;;;;;;20.24;43.15;99600.81;5090757;28;1283;-53
2020/12/12 09:33:23;;;;;;;;;;;;;;;20.22;43.23;99605.06;5093793;28;1914;-46
2020/12/12 09:35:48;;;;;;;;;;;;;;;20.30;43.07;99601.47;5099442;28;985;-48
2020/12/12 09:38:13;;;;;;;;;;;;;;;20.31;43.01;99614.97;5099754;28;815;-50
2020/12/12 09:40:39;;;;;;;;;;;;;;;20.29;43.08;99605.38;5099949;28;732;-46
2020/12/12 09:43:04;;;;;;;;;;;;;;;20.34;43.00;99603.25;5099888;28;736;-52
2020/12/12 09:45:30;;;;;;;;;;;;;;;20.28;42.78;99603.75;5099517;28;855;-52
2020/12/12 09:47:55;;;;;;;;;;;;;;;20.38;42.82;99602.59;5099840;28;787;-55
2020/12/12 09:50:33;;;;;;;;;;;;;;;20.49;42.72;99590.06;5099316;28;933;-52
2020/12/12 09:52:59;;;;;;;;;;;;;;;20.50;42.63;99584.22;5099327;28;1971;-50
2020/12/12 09:55:24;;;;;;;;;;;;;;;20.49;42.46;99579.81;5099898;28;783;-48
2020/12/12 09:57:50;;;;;;;;;;;;;;;20.49;42.71;99567.97;5099658;28;763;-49
2020/12/12 10:00:15;;;;;;;;;;;;;;;20.52;42.49;99564.53;5099356;28;767;-51
2020/12/12 10:02:41;;;;;;;;;;;;;;;20.51;42.63;99558.22;5099528;28;806;-49
2020/12/12 10:05:07;;;;;;;;;;;;;;;20.51;42.56;99549.94;5097935;28;930;-48
2020/12/12 10:07:32;;;;;;;;;;;;;;;20.56;42.59;99546.19;5099451;28;974;-55
2020/12/12 10:09:58;;;;;;;;;;;;;;;20.52;42.64;99543.28;5099512;28;787;-50
2020/12/12 10:12:23;;;;;;;;;;;;;;;20.65;42.47;99540.63;5099344;28;810;-49
2020/12/12 10:14:49;;;;;;;;;;;;;;;20.77;41.91;99546.28;5107037;28;1976;-46
2020/12/12 10:17:14;;;;;;;;;;;;;;;20.49;42.58;99543.13;5119773;28;827;-45
2020/12/12 10:19:39;;;;;;;;;;;;;;;20.56;42.46;99545.38;5108934;28;1042;-46
2020/12/12 10:22:05;;;;;;;;;;;;;;;20.56;42.66;99537.91;5099282;28;850;-47
2020/12/12 10:24:30;;;;;;;;;;;;;;;20.54;42.41;99544.88;5099186;28;818;-54
2020/12/12 10:26:56;;;;;;;;;;;;;;;20.64;42.57;99533.50;5099171;28;811;-53
2020/12/12 10:29:21;;;;;;;;;;;;;;;20.53;42.63;99535.81;5096998;28;878;-57
2020/12/12 10:31:46;;;;;;;;;;;;;;;20.83;42.17;99541.38;5098613;28;850;-46
2020/12/12 10:34:12;;;;;;;;;;;;;;;20.77;42.30;99548.25;5098196;28;1987;-48
2020/12/12 10:36:37;;;;;;;;;;;;;;;20.85;41.81;99545.44;5099148;28;737;-50
2020/12/12 10:39:03;;;;;;;;;;;;;;;20.72;42.18;99540.97;5098280;28;814;-51
2020/12/12 10:41:31;;;;;;;;;;;;;;;20.80;42.08;99542.88;5098494;28;755;-46
2020/12/12 10:43:57;;;;;;;;;;;;;;;20.79;42.26;99534.91;5099149;28;802;-50
2020/12/12 10:46:22;;;;;;;;;;;;;;;20.95;41.74;99524.09;5098678;28;744;-52
2020/12/12 10:48:48;;;;;;;;;;;;;;;20.92;41.83;99531.09;5098028;28;985;-52
2020/12/12 10:51:16;;;;;;;;;;;;;;;20.80;42.02;99531.84;5098515;28;743;-48
2020/12/12 10:53:42;;;;;;;;;;;;;;;20.80;42.41;99525.47;5098481;28;1909;-51
2020/12/12 10:56:07;;;;;;;;;;;;;;;20.88;41.97;99515.53;5098395;28;883;-56
2020/12/12 10:58:33;;;;;;;;;;;;;;;20.95;42.04;99516.63;5098152;28;862;-57
2020/12/12 11:00:58;;;;;;;;;;;;;;;20.85;42.34;99508.72;5098947;28;817;-48
2020/12/12 11:03:24;;;;;;;;;;;;;;;20.92;42.25;99510.97;5098103;28;732;-57
2020/12/12 11:05:49;;;;;;;;;;;;;;;21.01;41.71;99503.41;5097986;28;914;-55
2020/12/12 11:08:14;;;;;;;;;;;;;;;20.84;42.40;99505.13;5098330;28;775;-56
2020/12/12 11:10:40;;;;;;;;;;;;;;;20.96;42.00;99496.13;5098223;28;762;-56
2020/12/12 11:13:05;;;;;;;;;;;;;;;21.01;42.14;99495.94;5097970;28;1911;-56
2020/12/12 11:15:31;;;;;;;;;;;;;;;20.96;42.22;99500.88;5111985;28;1149;-50
2020/12/12 11:17:56;;;;;;;;;;;;;;;20.67;42.78;99503.28;5118405;28;1102;-58
2020/12/12 11:20:22;;;;;;;;;;;;;;;20.70;42.77;99493.50;5102143;28;980;-53
2020/12/12 11:22:47;;;;;;;;;;;;;;;20.87;42.13;99489.03;5097430;28;834;-57
2020/12/12 11:25:13;;;;;;;;;;;;;;;20.98;42.20;99496.59;5098515;28;805;-58
2020/12/12 11:27:39;;;;;;;;;;;;;;;20.97;42.11;99489.47;5097950;28;863;-56
2020/12/12 11:30:05;;;;;;;;;;;;;;;21.06;41.88;99494.94;5096763;28;795;-56
2020/12/12 11:32:31;;;;;;;;;;;;;;;21.00;41.97;99485.25;5097803;28;756;-55
2020/12/12 11:35:09;;;;;;;;;;;;;;;20.96;42.14;99484.28;5096292;28;1971;-55
2020/12/12 11:47:40;;;;;;;;;;;;;;;20.82;42.38;99485.31;5097564;28;783;-52
2020/12/12 11:50:05;;;;;;;;;;;;;;;20.97;42.14;99474.81;5097008;28;981;-48
2020/12/12 11:52:35;;;;;;;;;;;;;;;21.10;41.66;99468.25;5096486;28;811;-55
2020/12/12 11:55:01;;;;;;;;;;;;;;;21.12;41.95;99473.44;5097277;28;1909;-54
2020/12/12 11:57:26;;;;;;;;;;;;;;;20.82;42.35;99470.72;5097403;28;747;-52
2020/12/12 11:59:55;;;;;;;;;;;;;;;21.00;42.12;99474.19;5097512;28;719;-46
2020/12/12 12:02:20;;;;;;;;;;;;;;;20.97;42.26;99480.34;5097338;28;831;-51
2020/12/12 12:04:46;;;;;;;;;;;;;;;20.97;42.18;99474.81;5096708;28;1008;-50
2020/12/12 12:07:12;;;;;;;;;;;;;;;21.05;42.00;99482.25;5097118;28;815;-50
2020/12/12 12:09:43;;;;;;;;;;;;;;;20.85;42.58;99461.75;5096029;28;867;-51
2020/12/12 12:12:09;;;;;;;;;;;;;;;20.98;42.32;99471.72;5096426;28;834;-48
2020/12/12 12:14:35;;;;;;;;;;;;;;;21.05;42.06;99476.72;5096612;28;1922;-56
2020/12/12 12:17:00;;;;;;;;;;;;;;;21.06;42.25;99483.88;5097074;28;826;-49
2020/12/12 12:19:26;;;;;;;;;;;;;;;20.72;42.87;99479.38;5096117;28;1015;-52
2020/12/12 12:21:51;;;;;;;;;;;;;;;20.89;42.48;99481.22;5096732;28;786;-56
2020/12/12 12:24:17;;;;;;;;;;;;;;;21.01;42.47;99481.31;5096878;28;490;-47
2020/12/12 12:26:43;;;;;;;;;;;;;;;20.95;42.33;99477.13;5096785;28;854;-52
2020/12/12 12:29:11;;;;;;;;;;;;;;;20.99;42.48;99478.09;5097170;28;803;-52
2020/12/12 12:31:36;;;;;;;;;;;;;;;21.07;42.17;99466.16;5096810;28;727;-54
2020/12/12 12:34:02;;;;;;;;;;;;;;;21.16;41.80;99472.41;5096262;28;1950;-49
2020/12/12 12:36:27;;;;;;;;;;;;;;;21.11;41.84;99471.81;5096762;28;744;-49
2020/12/12 12:38:53;;;;;;;;;;;;;;;;;;5096853;28;827;-50
2020/12/12 12:41:18;;;;;;;;;;;;;;;21.06;42.11;99480.31;5096837;28;850;-47
2020/12/12 12:43:44;;;;;;;;;;;;;;;21.03;42.29;99465.22;5096344;28;955;-48
2020/12/12 12:46:09;;;;;;;;;;;;;;;21.17;41.87;99465.75;5096545;28;842;-52
2020/12/12 12:48:35;;;;;;;;;;;;;;;21.05;42.17;99470.41;5096149;28;938;-48
2020/12/12 12:51:00;;;;;;;;;;;;;;;21.04;42.39;99464.03;5096501;28;779;-54
2020/12/12 12:53:26;;;;;;;;;;;;;;;21.13;42.04;99467.56;5096599;28;1914;-50
2020/12/12 12:55:51;;;;;;;;;;;;;;;21.08;42.34;99469.72;5096488;28;752;-58
2020/12/12 12:58:17;;;;;;;;;;;;;;;21.25;41.98;99454.97;5096558;28;755;-59
2020/12/12 13:00:43;;;;;;;;;;;;;;;21.27;41.92;99460.97;5096422;28;728;-55
2020/12/12 13:03:08;;;;;;;;;;;;;;;21.07;42.29;99452.34;5098834;28;723;-49
2020/12/12 13:05:34;;;;;;;;;;;;;;;21.20;42.34;99451.25;5100213;28;933;-49
2020/12/12 13:07:59;;;;;;;;;;;;;;;21.19;42.11;99448.81;5100461;28;815;-54
2020/12/12 13:10:25;;;;;;;;;;;;;;;21.22;42.25;99470.25;5100516;28;827;-53